Terminal Aerodrome Forecast
Issued by NWS

Home | Current Version | Previous Version | Text Only | Print | Product List | Glossary On
Versions: 1 2 3 4 5 6 7 8 9 10 11 12 13 14 15 16 17 18 19
913
FTUS43 KILX 121127
TAFDEC
TAF
KDEC 121127Z 1212/1312 32020G30KT P6SM BKN035
     FM121300 32017G25KT P6SM SCT200
     FM122300 30012KT P6SM SKC
     FM130100 30006KT P6SM SKC
     FM130500 25004KT P6SM SCT150
     FM131100 19006KT P6SM SCT150=

USA.gov is the U.S. government's official web portal to all federal, state and local government web resources and services.